createdAt,value
2023-04-26T00:00:19.887Z,95454
2023-04-26T00:01:29.606Z,95457
2023-04-26T00:02:39.427Z,95458
2023-04-26T00:03:48.091Z,95453
2023-04-26T00:04:57.930Z,95453
2023-04-26T00:06:07.497Z,95460
2023-04-26T00:07:16.205Z,95457
2023-04-26T00:08:24.966Z,95453
2023-04-26T00:09:33.683Z,95456
2023-04-26T00:10:43.440Z,95455
2023-04-26T00:11:52.092Z,95454
2023-04-26T00:13:00.788Z,95456
2023-04-26T00:14:10.502Z,95457
2023-04-26T00:15:19.200Z,95453
2023-04-26T00:16:28.924Z,95453
2023-04-26T00:17:37.760Z,95451
2023-04-26T00:18:46.263Z,95445
2023-04-26T00:19:55.938Z,95448
2023-04-26T00:21:04.612Z,95443
2023-04-26T00:22:13.329Z,95442
2023-04-26T00:23:23.068Z,95447
2023-04-26T00:24:30.771Z,95446
2023-04-26T00:25:40.478Z,95444
2023-04-26T00:26:50.184Z,95449
2023-04-26T00:27:59.970Z,95450
2023-04-26T00:29:08.727Z,95453
2023-04-26T00:30:18.396Z,95450
2023-04-26T00:31:27.114Z,95451
2023-04-26T00:32:36.808Z,95448
2023-04-26T00:33:46.536Z,95445
2023-04-26T00:34:56.203Z,95447
2023-04-26T00:36:05.976Z,95442
2023-04-26T00:37:14.595Z,95446
2023-04-26T00:38:24.352Z,95447
2023-04-26T00:39:31.015Z,95450
2023-04-26T00:40:40.676Z,95443
2023-04-26T00:41:50.354Z,95450
2023-04-26T00:42:59.061Z,95451
2023-04-26T00:44:07.794Z,95448
2023-04-26T00:45:16.498Z,95453
2023-04-26T00:46:26.251Z,95448
2023-04-26T00:47:35.854Z,95452
2023-04-26T00:48:44.585Z,95449
2023-04-26T00:49:54.304Z,95449
2023-04-26T00:51:04.950Z,95450
2023-04-26T00:52:13.687Z,95446
2023-04-26T00:53:23.409Z,95449
2023-04-26T00:54:32.239Z,95450
2023-04-26T00:55:40.949Z,95448
2023-04-26T00:56:49.616Z,95447
2023-04-26T00:57:58.368Z,95450
2023-04-26T00:59:07.110Z,95448
2023-04-26T01:00:16.834Z,95452
2023-04-26T01:01:25.556Z,95451
2023-04-26T01:02:34.310Z,95449
2023-04-26T01:03:44.076Z,95450
2023-04-26T01:04:53.719Z,95453
2023-04-26T01:06:03.440Z,95449
2023-04-26T01:07:13.084Z,95449
2023-04-26T01:08:21.806Z,95452
2023-04-26T01:09:31.462Z,95449
2023-04-26T01:10:40.232Z,95452
2023-04-26T01:11:49.929Z,95450
2023-04-26T01:12:59.595Z,95452
2023-04-26T01:14:07.358Z,95451
2023-04-26T01:15:16.011Z,95449
2023-04-26T01:16:25.743Z,95452
2023-04-26T01:17:33.408Z,95454
2023-04-26T01:18:43.100Z,95450
2023-04-26T01:19:52.786Z,95451
2023-04-26T01:21:03.529Z,95456
2023-04-26T01:22:12.243Z,95455
2023-04-26T01:23:21.894Z,95461
2023-04-26T01:24:30.593Z,95457
2023-04-26T01:25:40.326Z,95459
2023-04-26T01:26:49.025Z,95454
2023-04-26T01:27:57.732Z,95459
2023-04-26T01:29:07.469Z,95456
2023-04-26T01:30:16.170Z,95466
2023-04-26T01:31:25.942Z,95463
2023-04-26T01:32:35.708Z,95463
2023-04-26T01:33:45.405Z,95466
2023-04-26T01:34:55.099Z,95462
2023-04-26T01:36:03.810Z,95466
2023-04-26T01:37:13.514Z,95466
2023-04-26T01:38:23.259Z,95464
2023-04-26T01:39:32.007Z,95466
2023-04-26T01:40:41.735Z,95461
2023-04-26T01:41:49.427Z,95458
2023-04-26T01:42:58.079Z,95465
2023-04-26T01:44:07.817Z,95460
2023-04-26T01:45:15.497Z,95462
2023-04-26T01:46:24.308Z,95463
2023-04-26T01:47:34.007Z,95467
2023-04-26T01:48:42.860Z,95469
2023-04-26T01:49:52.577Z,95464
2023-04-26T01:51:00.306Z,95459
2023-04-26T01:52:10.057Z,95458
2023-04-26T01:53:19.817Z,95462
2023-04-26T01:54:28.609Z,95464
2023-04-26T01:55:37.305Z,95464
2023-04-26T01:56:47.031Z,95462
2023-04-26T01:57:56.762Z,95468
2023-04-26T01:59:06.514Z,95466
2023-04-26T02:00:14.279Z,95464
2023-04-26T02:01:24.201Z,95466
2023-04-26T02:02:33.760Z,95464
2023-04-26T02:03:41.430Z,95466
2023-04-26T02:04:51.174Z,95473
2023-04-26T02:05:59.823Z,95475
2023-04-26T02:07:08.534Z,95477
2023-04-26T02:08:18.223Z,95481
2023-04-26T02:09:27.956Z,95477
2023-04-26T02:10:37.764Z,95485
2023-04-26T02:11:47.418Z,95478
2023-04-26T02:12:56.113Z,95474
2023-04-26T02:14:05.840Z,95476
2023-04-26T02:15:15.588Z,95477
2023-04-26T02:16:24.288Z,95473
2023-04-26T02:17:33.958Z,95476
2023-04-26T02:18:41.709Z,95478
2023-04-26T02:19:50.457Z,95481
2023-04-26T02:21:01.143Z,95479
2023-04-26T02:22:09.850Z,95483
2023-04-26T02:23:18.586Z,95474
2023-04-26T02:24:27.297Z,95481
2023-04-26T02:25:37.019Z,95478
2023-04-26T02:26:46.747Z,95473
2023-04-26T02:27:56.508Z,95479
2023-04-26T02:29:05.231Z,95473
2023-04-26T02:30:15.106Z,95472
2023-04-26T02:31:23.913Z,95467
2023-04-26T02:32:32.667Z,95464
2023-04-26T02:33:42.449Z,95462
2023-04-26T02:34:52.188Z,95461
2023-04-26T02:36:01.895Z,95459
2023-04-26T02:37:11.609Z,95459
2023-04-26T02:38:21.278Z,95463
2023-04-26T02:39:30.976Z,95464
2023-04-26T02:40:40.679Z,95459
2023-04-26T02:41:49.451Z,95458
2023-04-26T02:42:59.322Z,95460
2023-04-26T02:44:08.895Z,95459
2023-04-26T02:45:18.729Z,95459
2023-04-26T02:46:27.414Z,95463
2023-04-26T02:47:36.100Z,95461
2023-04-26T02:48:45.845Z,95462
2023-04-26T02:49:53.631Z,95466
2023-04-26T02:51:02.285Z,95467
2023-04-26T02:52:11.030Z,95467
2023-04-26T02:53:20.770Z,95466
2023-04-26T02:54:31.250Z,95464
2023-04-26T02:55:38.928Z,95465
2023-04-26T02:56:48.642Z,95464
2023-04-26T02:57:58.321Z,95464
2023-04-26T02:59:06.037Z,95461
2023-04-26T03:00:15.798Z,95469
2023-04-26T03:01:24.480Z,95465
2023-04-26T03:02:34.213Z,95465
2023-04-26T03:03:43.944Z,95465
2023-04-26T03:04:52.577Z,95462
2023-04-26T03:06:01.258Z,95463
2023-04-26T03:07:10.969Z,95465
2023-04-26T03:08:19.703Z,95470
2023-04-26T03:09:29.479Z,95469
2023-04-26T03:10:39.198Z,95468
2023-04-26T03:11:49.005Z,95472
2023-04-26T03:12:56.636Z,95472
2023-04-26T03:14:05.344Z,95471
2023-04-26T03:15:14.084Z,95469
2023-04-26T03:16:23.961Z,95469
2023-04-26T03:17:33.666Z,95474
2023-04-26T03:18:42.311Z,95474
2023-04-26T03:19:52.027Z,95473
2023-04-26T03:21:00.742Z,95473
2023-04-26T03:22:10.421Z,95476
2023-04-26T03:23:20.104Z,95474
2023-04-26T03:24:29.841Z,95473
2023-04-26T03:25:39.529Z,95477
2023-04-26T03:26:49.275Z,95473
2023-04-26T03:27:58.952Z,95479
2023-04-26T03:29:08.716Z,95477
2023-04-26T03:30:17.447Z,95478
2023-04-26T03:31:27.138Z,95474
2023-04-26T03:32:36.921Z,95478
2023-04-26T03:33:45.530Z,95481
2023-04-26T03:34:55.523Z,95478
2023-04-26T03:36:04.218Z,95485
2023-04-26T03:37:12.941Z,95482
2023-04-26T03:38:22.635Z,95485
2023-04-26T03:39:31.374Z,95488
2023-04-26T03:40:40.065Z,95486
2023-04-26T03:41:49.798Z,95482
2023-04-26T03:42:59.590Z,95486
2023-04-26T03:44:09.301Z,95483
2023-04-26T03:45:18.128Z,95481
2023-04-26T03:46:26.871Z,95480
2023-04-26T03:47:36.500Z,95475
2023-04-26T03:48:45.177Z,95478
2023-04-26T03:49:54.881Z,95478
2023-04-26T03:51:04.590Z,95478
2023-04-26T03:52:13.284Z,95480
2023-04-26T03:53:21.962Z,95481
2023-04-26T03:54:30.690Z,95479
2023-04-26T03:55:40.401Z,95484
2023-04-26T03:56:50.158Z,95479
2023-04-26T03:57:58.867Z,95484
2023-04-26T03:59:08.557Z,95474
2023-04-26T04:00:18.315Z,95475
2023-04-26T04:01:27.003Z,95473
2023-04-26T04:02:35.855Z,95480
2023-04-26T04:03:45.717Z,95479
2023-04-26T04:04:54.273Z,95486
2023-04-26T04:06:03.852Z,95488
2023-04-26T04:07:11.596Z,95488
2023-04-26T04:08:20.352Z,95490
2023-04-26T04:09:29.125Z,95492
2023-04-26T04:10:38.858Z,95489
2023-04-26T04:11:48.550Z,95493
2023-04-26T04:12:57.233Z,95494
2023-04-26T04:14:05.955Z,95495
2023-04-26T04:15:15.675Z,95494
2023-04-26T04:16:24.486Z,95491
2023-04-26T04:17:34.690Z,95492
2023-04-26T04:18:42.920Z,95492
2023-04-26T04:19:51.511Z,95494
2023-04-26T04:21:00.152Z,95487
2023-04-26T04:22:10.814Z,95491
2023-04-26T04:23:19.515Z,95489
2023-04-26T04:24:29.189Z,95487
2023-04-26T04:25:37.889Z,95485
2023-04-26T04:26:46.567Z,95486
2023-04-26T04:27:56.263Z,95490
2023-04-26T04:29:03.954Z,95491
2023-04-26T04:30:12.690Z,95493
2023-04-26T04:31:21.385Z,95488
2023-04-26T04:32:30.124Z,95489
2023-04-26T04:33:39.795Z,95489
2023-04-26T04:34:49.697Z,95494
2023-04-26T04:35:59.211Z,95497
2023-04-26T04:37:08.975Z,95499
2023-04-26T04:38:17.671Z,95498
2023-04-26T04:39:26.385Z,95498
2023-04-26T04:40:37.112Z,95504
2023-04-26T04:41:46.845Z,95508
2023-04-26T04:42:56.515Z,95504
2023-04-26T04:44:05.206Z,95506
2023-04-26T04:45:14.934Z,95509
2023-04-26T04:46:24.742Z,95512
2023-04-26T04:47:34.461Z,95517
2023-04-26T04:48:43.073Z,95512
2023-04-26T04:49:52.817Z,95516
2023-04-26T04:51:02.521Z,95516
2023-04-26T04:52:12.206Z,95516
2023-04-26T04:53:21.963Z,95517
2023-04-26T04:54:31.643Z,95516
2023-04-26T04:55:41.434Z,95517
2023-04-26T04:56:51.083Z,95518
2023-04-26T04:57:59.772Z,95521
2023-04-26T04:59:09.446Z,95521
2023-04-26T05:00:18.112Z,95524
2023-04-26T05:01:27.859Z,95523
2023-04-26T05:02:35.615Z,95525
2023-04-26T05:03:45.351Z,95522
2023-04-26T05:04:54.997Z,95524
2023-04-26T05:06:02.685Z,95524
2023-04-26T05:07:11.344Z,95524
2023-04-26T05:08:20.014Z,95529
2023-04-26T05:09:28.669Z,95531
2023-04-26T05:10:37.375Z,95533
2023-04-26T05:11:47.116Z,95538
2023-04-26T05:12:55.858Z,95535
2023-04-26T05:14:04.520Z,95537
2023-04-26T05:15:14.231Z,95539
2023-04-26T05:16:23.064Z,95538
2023-04-26T05:17:32.630Z,95541
2023-04-26T05:18:42.252Z,95544
2023-04-26T05:19:51.886Z,95536
2023-04-26T05:21:01.726Z,95543
2023-04-26T05:22:09.299Z,95542
2023-04-26T05:23:17.972Z,95541
2023-04-26T05:24:27.659Z,95544
2023-04-26T05:25:37.412Z,95546
2023-04-26T05:26:47.096Z,95548
2023-04-26T05:27:55.809Z,95543
2023-04-26T05:29:05.503Z,95545
2023-04-26T05:30:15.194Z,95548
2023-04-26T05:31:23.982Z,95549
2023-04-26T05:32:32.589Z,95550
2023-04-26T05:33:41.286Z,95549
2023-04-26T05:34:50.970Z,95548
2023-04-26T05:36:00.679Z,95547
2023-04-26T05:37:09.389Z,95551
2023-04-26T05:38:17.057Z,95550
2023-04-26T05:39:26.746Z,95555
2023-04-26T05:40:34.501Z,95554
2023-04-26T05:41:43.191Z,95559
2023-04-26T05:42:52.877Z,95559
2023-04-26T05:44:01.582Z,95552
2023-04-26T05:45:11.296Z,95556
2023-04-26T05:46:19.129Z,95554
2023-04-26T05:47:27.742Z,95556
2023-04-26T05:48:37.374Z,95554
2023-04-26T05:49:46.044Z,95558
2023-04-26T05:50:56.791Z,95552
2023-04-26T05:52:05.446Z,95560
2023-04-26T05:53:15.171Z,95558
2023-04-26T05:54:24.852Z,95559
2023-04-26T05:55:34.564Z,95562
2023-04-26T05:56:43.244Z,95558
2023-04-26T05:57:52.975Z,95559
2023-04-26T05:59:01.575Z,95560
2023-04-26T06:00:11.270Z,95560
2023-04-26T06:01:18.961Z,95560
2023-04-26T06:02:28.818Z,95559
2023-04-26T06:03:38.435Z,95557
2023-04-26T06:04:47.116Z,95560
2023-04-26T06:05:56.754Z,95565
2023-04-26T06:07:06.430Z,95566
2023-04-26T06:08:15.203Z,95561
2023-04-26T06:09:24.907Z,95567
2023-04-26T06:10:34.565Z,95571
2023-04-26T06:11:44.350Z,95575
2023-04-26T06:12:54.021Z,95577
2023-04-26T06:14:03.759Z,95579
2023-04-26T06:15:14.411Z,95581
2023-04-26T06:16:24.122Z,95581
2023-04-26T06:17:31.809Z,95582
2023-04-26T06:18:40.506Z,95585
2023-04-26T06:19:49.260Z,95584
2023-04-26T06:20:56.935Z,95584
2023-04-26T06:22:06.681Z,95580
2023-04-26T06:23:15.353Z,95579
2023-04-26T06:24:25.021Z,95580
2023-04-26T06:25:34.788Z,95580
2023-04-26T06:26:43.444Z,95580
2023-04-26T06:27:52.098Z,95580
2023-04-26T06:29:00.804Z,95587
2023-04-26T06:30:09.489Z,95587
2023-04-26T06:31:19.212Z,95585
2023-04-26T06:32:27.904Z,95585
2023-04-26T06:33:36.623Z,95586
2023-04-26T06:34:46.316Z,95589
2023-04-26T06:35:54.060Z,95584
2023-04-26T06:37:03.783Z,95581
2023-04-26T06:38:12.475Z,95582
2023-04-26T06:39:21.155Z,95581
2023-04-26T06:40:30.850Z,95585
2023-04-26T06:41:39.816Z,95583
2023-04-26T06:42:49.416Z,95583
2023-04-26T06:43:59.104Z,95588
2023-04-26T06:45:07.793Z,95586
2023-04-26T06:46:16.516Z,95581
2023-04-26T06:47:25.203Z,95586
2023-04-26T06:48:33.884Z,95581
2023-04-26T06:49:43.531Z,95581
2023-04-26T06:50:51.203Z,95583
2023-04-26T06:51:58.899Z,95582
2023-04-26T06:53:08.661Z,95582
2023-04-26T06:54:16.329Z,95583
2023-04-26T06:55:26.038Z,95585
2023-04-26T06:56:36.812Z,95584
2023-04-26T06:57:46.533Z,95590
2023-04-26T06:58:56.176Z,95594
2023-04-26T07:00:04.898Z,95593
2023-04-26T07:01:13.603Z,95597
2023-04-26T07:02:23.460Z,95593
2023-04-26T07:03:31.070Z,95589
2023-04-26T07:04:41.098Z,95587
2023-04-26T07:05:50.298Z,95591
2023-04-26T07:06:58.004Z,95589
2023-04-26T07:08:06.689Z,95586
2023-04-26T07:09:16.393Z,95590
2023-04-26T07:10:25.056Z,95591
2023-04-26T07:11:34.799Z,95590
2023-04-26T07:12:43.550Z,95592
2023-04-26T07:13:53.439Z,95591
2023-04-26T07:15:02.893Z,95591
2023-04-26T07:16:12.648Z,95589
2023-04-26T07:17:22.336Z,95591
2023-04-26T07:18:31.978Z,95588
2023-04-26T07:19:40.652Z,95589
2023-04-26T07:20:49.362Z,95591
2023-04-26T07:21:59.088Z,95592
2023-04-26T07:23:07.818Z,95590
2023-04-26T07:24:17.504Z,95592
2023-04-26T07:25:27.242Z,95592
2023-04-26T07:26:36.938Z,95589
2023-04-26T07:27:46.616Z,95594
2023-04-26T07:28:54.349Z,95591
2023-04-26T07:30:03.151Z,95586
2023-04-26T07:31:12.848Z,95593
2023-04-26T07:32:21.592Z,95583
2023-04-26T07:33:31.468Z,95583
2023-04-26T07:34:38.923Z,95585
2023-04-26T07:35:47.604Z,95589
2023-04-26T07:36:57.289Z,95584
2023-04-26T07:38:05.966Z,95586
2023-04-26T07:39:14.650Z,95578
2023-04-26T07:40:24.310Z,95582
2023-04-26T07:41:34.046Z,95585
2023-04-26T07:42:42.784Z,95586
2023-04-26T07:43:51.633Z,95588
2023-04-26T07:45:01.153Z,95586
2023-04-26T07:46:09.871Z,95583
2023-04-26T07:47:17.538Z,95584
2023-04-26T07:48:27.233Z,95586
2023-04-26T07:49:35.938Z,95585
2023-04-26T07:50:45.654Z,95584
2023-04-26T07:51:55.345Z,95581
2023-04-26T07:53:03.024Z,95585
2023-04-26T07:54:11.671Z,95583
2023-04-26T07:55:21.344Z,95588
2023-04-26T07:56:29.029Z,95589
2023-04-26T07:57:37.726Z,95583
2023-04-26T07:58:47.428Z,95586
2023-04-26T07:59:56.103Z,95588
2023-04-26T08:01:05.799Z,95591
2023-04-26T08:02:15.674Z,95590
2023-04-26T08:03:26.371Z,95589
2023-04-26T08:04:36.044Z,95589
2023-04-26T08:05:45.005Z,95587
2023-04-26T08:06:54.369Z,95590
2023-04-26T08:08:03.060Z,95586
2023-04-26T08:09:11.731Z,95586
2023-04-26T08:10:21.404Z,95583
2023-04-26T08:11:31.146Z,95586
2023-04-26T08:12:38.833Z,95586
2023-04-26T08:13:48.572Z,95592
2023-04-26T08:14:57.327Z,95591
2023-04-26T08:16:06.012Z,95588
2023-04-26T08:17:15.760Z,95585
2023-04-26T08:18:25.512Z,95579
2023-04-26T08:19:35.096Z,95580
2023-04-26T08:20:43.823Z,95579
2023-04-26T08:21:54.522Z,95583
2023-04-26T08:23:04.281Z,95584
2023-04-26T08:24:12.950Z,95584
2023-04-26T08:25:21.621Z,95588
2023-04-26T08:26:30.321Z,95582
2023-04-26T08:27:40.047Z,95584
2023-04-26T08:28:49.752Z,95584
2023-04-26T08:29:58.422Z,95583
2023-04-26T08:31:08.215Z,95587
2023-04-26T08:32:18.819Z,95586
2023-04-26T08:33:28.682Z,95587
2023-04-26T08:34:38.312Z,95579
2023-04-26T08:35:47.998Z,95582
2023-04-26T08:36:56.659Z,95583
2023-04-26T08:38:06.328Z,95584
2023-04-26T08:39:15.014Z,95584
2023-04-26T08:40:23.693Z,95587
2023-04-26T08:41:33.396Z,95576
2023-04-26T08:42:43.071Z,95580
2023-04-26T08:43:52.992Z,95579
2023-04-26T08:45:01.429Z,95578
2023-04-26T08:46:11.098Z,95578
2023-04-26T08:47:20.740Z,95574
2023-04-26T08:48:29.459Z,95583
2023-04-26T08:49:38.196Z,95579
2023-04-26T08:50:47.795Z,95579
2023-04-26T08:51:57.702Z,95583
2023-04-26T08:53:06.445Z,95582
2023-04-26T08:54:16.143Z,95584
2023-04-26T08:55:25.831Z,95583
2023-04-26T08:56:35.574Z,95585
2023-04-26T08:57:44.331Z,95583
2023-04-26T08:58:54.035Z,95583
2023-04-26T09:00:03.761Z,95580
2023-04-26T09:01:11.510Z,95579
2023-04-26T09:02:21.237Z,95579
2023-04-26T09:03:30.986Z,95581
2023-04-26T09:04:38.841Z,95579
2023-04-26T09:05:47.496Z,95576
2023-04-26T09:06:57.027Z,95579
2023-04-26T09:08:06.775Z,95574
2023-04-26T09:09:15.476Z,95577
2023-04-26T09:10:25.187Z,95579
2023-04-26T09:11:33.897Z,95584
2023-04-26T09:12:43.609Z,95584
2023-04-26T09:13:53.474Z,95577
2023-04-26T09:15:02.988Z,95586
2023-04-26T09:16:12.638Z,95589
2023-04-26T09:17:20.386Z,95590
2023-04-26T09:18:30.117Z,95588
2023-04-26T09:19:38.857Z,95582
2023-04-26T09:20:47.527Z,95582
2023-04-26T09:21:57.209Z,95585
2023-04-26T09:23:05.904Z,95584
2023-04-26T09:24:14.593Z,95585
2023-04-26T09:25:24.486Z,95580
2023-04-26T09:26:34.030Z,95580
2023-04-26T09:27:42.695Z,95580
2023-04-26T09:28:52.515Z,95580
2023-04-26T09:30:01.102Z,95583
2023-04-26T09:31:09.833Z,95580
2023-04-26T09:32:18.497Z,95580
2023-04-26T09:33:27.215Z,95577
2023-04-26T09:34:36.883Z,95580
2023-04-26T09:35:44.625Z,95579
2023-04-26T09:36:53.364Z,95575
2023-04-26T09:38:07.734Z,95576
2023-04-26T09:39:13.848Z,95581
2023-04-26T09:40:23.595Z,95579
2023-04-26T09:41:32.307Z,95581
2023-04-26T09:42:41.075Z,95579
2023-04-26T09:43:50.832Z,95580
2023-04-26T09:45:00.566Z,95581
2023-04-26T09:46:10.292Z,95569
2023-04-26T09:47:20.000Z,95572
2023-04-26T09:48:29.688Z,95571
2023-04-26T09:49:38.397Z,95573
2023-04-26T09:50:48.058Z,95578
2023-04-26T09:51:57.826Z,95575
2023-04-26T09:53:07.637Z,95573
2023-04-26T09:54:17.268Z,95571
2023-04-26T09:55:34.554Z,95575
2023-04-26T09:56:37.591Z,95579
2023-04-26T09:57:45.258Z,95579
2023-04-26T09:58:55.086Z,95583
2023-04-26T10:00:03.663Z,95581
2023-04-26T10:01:12.397Z,95584
2023-04-26T10:02:22.137Z,95576
2023-04-26T10:03:30.975Z,95583
2023-04-26T10:04:39.636Z,95582
2023-04-26T10:05:49.310Z,95576
2023-04-26T10:06:58.040Z,95571
2023-04-26T10:08:07.749Z,95574
2023-04-26T10:09:16.459Z,95583
2023-04-26T10:10:26.132Z,95572
2023-04-26T10:11:35.855Z,95569
2023-04-26T10:12:44.580Z,95570
2023-04-26T10:13:53.345Z,95572
2023-04-26T10:15:03.062Z,95572
2023-04-26T10:16:10.790Z,95571
2023-04-26T10:17:19.429Z,95570
2023-04-26T10:18:29.263Z,95568
2023-04-26T10:19:38.989Z,95563
2023-04-26T10:20:48.734Z,95569
2023-04-26T10:21:56.513Z,95566
2023-04-26T10:23:06.197Z,95574
2023-04-26T10:24:15.989Z,95569
2023-04-26T10:25:24.702Z,95565
2023-04-26T10:26:34.395Z,95564
2023-04-26T10:27:43.149Z,95568
2023-04-26T10:28:55.397Z,95565
2023-04-26T10:30:02.494Z,95567
2023-04-26T10:31:12.268Z,95561
2023-04-26T10:32:20.901Z,95553
2023-04-26T10:33:30.550Z,95555
2023-04-26T10:34:38.264Z,95550
2023-04-26T10:35:46.943Z,95552
2023-04-26T10:36:55.621Z,95546
2023-04-26T10:38:05.310Z,95548
2023-04-26T10:39:15.044Z,95551
2023-04-26T10:40:24.760Z,95547
2023-04-26T10:41:33.456Z,95547
2023-04-26T10:42:43.106Z,95548
2023-04-26T10:43:51.981Z,95549
2023-04-26T10:44:59.474Z,95556
2023-04-26T10:46:08.182Z,95552
2023-04-26T10:47:17.926Z,95548
2023-04-26T10:48:27.629Z,95541
2023-04-26T10:49:36.328Z,95540
2023-04-26T10:50:44.973Z,95539
2023-04-26T10:51:54.692Z,95537
2023-04-26T10:53:03.069Z,95536
2023-04-26T10:54:11.826Z,95539
2023-04-26T10:55:20.758Z,95533
2023-04-26T10:56:30.445Z,95536
2023-04-26T10:57:40.274Z,95536
2023-04-26T10:58:48.917Z,95526
2023-04-26T10:59:58.616Z,95526
2023-04-26T11:01:08.443Z,95530
2023-04-26T11:02:17.994Z,95531
2023-04-26T11:03:26.761Z,95531
2023-04-26T11:04:36.446Z,95531
2023-04-26T11:05:44.104Z,95528
2023-04-26T11:06:52.824Z,95522
2023-04-26T11:08:02.521Z,95525
2023-04-26T11:09:11.263Z,95519
2023-04-26T11:10:19.991Z,95522
2023-04-26T11:11:29.669Z,95516
2023-04-26T11:12:38.382Z,95514
2023-04-26T11:13:48.184Z,95505
2023-04-26T11:14:56.743Z,95502
2023-04-26T11:16:05.476Z,95496
2023-04-26T11:17:15.164Z,95497
2023-04-26T11:18:22.856Z,95499
2023-04-26T11:19:31.558Z,95500
2023-04-26T11:20:40.221Z,95502
2023-04-26T11:21:49.901Z,95500
2023-04-26T11:22:59.575Z,95503
2023-04-26T11:24:08.310Z,95507
2023-04-26T11:25:17.975Z,95500
2023-04-26T11:26:27.691Z,95496
2023-04-26T11:27:36.386Z,95496
2023-04-26T11:28:46.109Z,95495
2023-04-26T11:29:55.787Z,95491
2023-04-26T11:31:04.530Z,95493
2023-04-26T11:32:14.107Z,95490
2023-04-26T11:33:22.862Z,95494
2023-04-26T11:34:32.526Z,95491
2023-04-26T11:35:43.229Z,95488
2023-04-26T11:36:50.904Z,95493
2023-04-26T11:38:00.621Z,95486
2023-04-26T11:39:10.969Z,95492
2023-04-26T11:40:19.180Z,95492
2023-04-26T11:41:28.914Z,95493
2023-04-26T11:42:36.612Z,95491
2023-04-26T11:43:46.321Z,95493
2023-04-26T11:44:55.965Z,95495
2023-04-26T11:46:05.699Z,95492
2023-04-26T11:47:15.333Z,95489
2023-04-26T11:48:25.014Z,95495
2023-04-26T11:49:33.691Z,95489
2023-04-26T11:50:43.448Z,95490
2023-04-26T11:51:53.175Z,95489
2023-04-26T11:53:01.844Z,95483
2023-04-26T11:54:11.496Z,95486
2023-04-26T11:55:20.198Z,95493
2023-04-26T11:56:28.907Z,95497
2023-04-26T11:57:37.612Z,95499
2023-04-26T11:58:46.288Z,95507
2023-04-26T11:59:55.979Z,95506
2023-04-26T12:01:05.662Z,95513
2023-04-26T12:02:14.576Z,95507
2023-04-26T12:03:24.131Z,95515
2023-04-26T12:04:33.814Z,95510
2023-04-26T12:05:41.476Z,95502
2023-04-26T12:06:51.125Z,95507
2023-04-26T12:07:59.780Z,95501
2023-04-26T12:09:09.443Z,95505
2023-04-26T12:10:17.157Z,95503
2023-04-26T12:11:25.850Z,95505
2023-04-26T12:12:35.510Z,95509
2023-04-26T12:13:45.217Z,95511
2023-04-26T12:14:53.907Z,95508
2023-04-26T12:16:01.729Z,95509
2023-04-26T12:17:12.275Z,95506
2023-04-26T12:18:22.080Z,95511
2023-04-26T12:19:30.658Z,95506
2023-04-26T12:20:39.383Z,95502
2023-04-26T12:21:49.082Z,95507
2023-04-26T12:22:57.736Z,95505
2023-04-26T12:24:06.432Z,95508
2023-04-26T12:25:16.104Z,95504
2023-04-26T12:26:25.784Z,95501
2023-04-26T12:27:35.538Z,95503
2023-04-26T12:28:42.288Z,95502
2023-04-26T12:29:52.057Z,95507
2023-04-26T12:31:01.735Z,95503
2023-04-26T12:32:11.398Z,95498
2023-04-26T12:33:20.100Z,95493
2023-04-26T12:34:28.789Z,95492
2023-04-26T12:35:37.486Z,95499
2023-04-26T12:36:47.183Z,95499
2023-04-26T12:37:56.838Z,95500
2023-04-26T12:39:05.590Z,95494
2023-04-26T12:40:14.323Z,95492
2023-04-26T12:41:22.007Z,95497
2023-04-26T12:42:30.677Z,95488
2023-04-26T12:43:39.362Z,95485
2023-04-26T12:44:48.060Z,95488
2023-04-26T12:45:57.864Z,95485
2023-04-26T12:47:04.536Z,95484
2023-04-26T12:48:14.645Z,95485
2023-04-26T12:49:23.924Z,95487
2023-04-26T12:50:32.736Z,95483
2023-04-26T12:51:42.337Z,95482
2023-04-26T12:52:51.028Z,95485
2023-04-26T12:54:00.787Z,95488
2023-04-26T12:55:10.500Z,95492
2023-04-26T12:56:18.225Z,95488
2023-04-26T12:57:26.945Z,95483
2023-04-26T12:58:36.608Z,95489
2023-04-26T12:59:45.291Z,95488
2023-04-26T13:00:54.028Z,95492
2023-04-26T13:02:03.761Z,95490
2023-04-26T13:03:12.540Z,95489
2023-04-26T13:04:22.312Z,95483
2023-04-26T13:05:31.962Z,95490
2023-04-26T13:06:39.708Z,95491
2023-04-26T13:07:48.354Z,95489
2023-04-26T13:08:58.037Z,95475
2023-04-26T13:10:06.684Z,95470
2023-04-26T13:11:16.407Z,95467
2023-04-26T13:12:25.103Z,95462
2023-04-26T13:13:42.826Z,95470
2023-04-26T13:14:45.496Z,95468
2023-04-26T13:15:54.348Z,95472
2023-04-26T13:17:02.967Z,95476
2023-04-26T13:18:11.961Z,95471
2023-04-26T13:19:20.354Z,95475
2023-04-26T13:20:31.010Z,95468
2023-04-26T13:21:38.835Z,95470
2023-04-26T13:22:47.568Z,95468
2023-04-26T13:23:57.225Z,95470
2023-04-26T13:25:06.917Z,95472
2023-04-26T13:26:17.060Z,95464
2023-04-26T13:27:29.928Z,95468
2023-04-26T13:28:37.451Z,95477
2023-04-26T13:29:47.136Z,95476
2023-04-26T13:30:54.808Z,95474
2023-04-26T13:32:04.512Z,95469
2023-04-26T13:33:14.229Z,95470
2023-04-26T13:34:23.402Z,95466
2023-04-26T13:35:33.147Z,95464
2023-04-26T13:36:41.847Z,95457
2023-04-26T13:37:50.549Z,95463
2023-04-26T13:39:00.190Z,95468
2023-04-26T13:40:09.888Z,95472
2023-04-26T13:41:18.636Z,95464
2023-04-26T13:42:27.317Z,95461
2023-04-26T13:43:37.107Z,95457
2023-04-26T13:44:46.805Z,95457
2023-04-26T13:45:56.574Z,95452
2023-04-26T13:47:06.189Z,95456
2023-04-26T13:48:16.100Z,95454
2023-04-26T13:49:24.537Z,95458
2023-04-26T13:50:33.249Z,95465
2023-04-26T13:51:42.956Z,95455
2023-04-26T13:52:51.641Z,95453
2023-04-26T13:54:00.320Z,95452
2023-04-26T13:55:10.003Z,95443
2023-04-26T13:56:19.774Z,95443
2023-04-26T13:57:29.434Z,95443
2023-04-26T13:58:37.119Z,95449
2023-04-26T13:59:46.866Z,95443
2023-04-26T14:00:56.599Z,95441
2023-04-26T14:02:04.325Z,95447
2023-04-26T14:03:14.106Z,95445
2023-04-26T14:04:22.840Z,95441
2023-04-26T14:05:32.484Z,95438
2023-04-26T14:06:42.213Z,95433
2023-04-26T14:07:52.398Z,95435
2023-04-26T14:08:59.630Z,95440
2023-04-26T14:10:09.375Z,95438
2023-04-26T14:11:19.090Z,95439
2023-04-26T14:12:28.805Z,95438
2023-04-26T14:13:38.464Z,95433
2023-04-26T14:14:48.148Z,95438
2023-04-26T14:15:57.938Z,95436
2023-04-26T14:17:05.535Z,95441
2023-04-26T14:18:14.423Z,95446
2023-04-26T14:19:23.856Z,95435
2023-04-26T14:20:32.529Z,95439
2023-04-26T14:21:41.301Z,95435
2023-04-26T14:22:50.952Z,95436
2023-04-26T14:23:59.611Z,95443
2023-04-26T14:25:09.425Z,95444
2023-04-26T14:26:17.160Z,95437
2023-04-26T14:27:25.794Z,95436
2023-04-26T14:28:35.492Z,95434
2023-04-26T14:29:45.205Z,95439
2023-04-26T14:30:53.896Z,95441
2023-04-26T14:32:03.620Z,95441
2023-04-26T14:33:13.348Z,95440
2023-04-26T14:34:23.051Z,95441
2023-04-26T14:35:30.804Z,95439
2023-04-26T14:36:38.491Z,95445
2023-04-26T14:37:48.201Z,95444
2023-04-26T14:38:56.845Z,95442
2023-04-26T14:40:06.526Z,95439
2023-04-26T14:41:15.197Z,95442
2023-04-26T14:42:25.002Z,95444
2023-04-26T14:43:34.632Z,95443
2023-04-26T14:44:43.436Z,95438
2023-04-26T14:45:53.222Z,95439
2023-04-26T14:47:02.882Z,95442
2023-04-26T14:48:11.626Z,95441
2023-04-26T14:49:20.328Z,95445
2023-04-26T14:50:30.737Z,95445